createdAt,value
2022-09-15T00:00:35.515Z,99164.91
2022-09-15T00:03:40.163Z,99170.78
2022-09-15T00:06:42.796Z,99178.13
2022-09-15T00:09:46.670Z,99190.78
2022-09-15T00:12:49.274Z,99185.28
2022-09-15T00:15:52.255Z,99189.97
2022-09-15T00:18:55.749Z,99197.16
2022-09-15T00:21:58.642Z,99195.22
2022-09-15T00:25:01.291Z,99190.25
2022-09-15T00:28:04.199Z,99175.81
2022-09-15T00:31:09.525Z,99176.78
2022-09-15T00:34:13.960Z,99178.34
2022-09-15T00:37:17.066Z,99175.59
2022-09-15T00:40:22.362Z,99169.13
2022-09-15T00:44:18.987Z,99170.41
2022-09-15T00:47:28.872Z,99181.53
2022-09-15T00:50:32.869Z,99179.09
2022-09-15T00:53:37.904Z,99170.41
2022-09-15T00:56:43.116Z,99176.88
2022-09-15T00:59:48.010Z,99186.41
2022-09-15T01:02:51.285Z,99199.69
2022-09-15T01:05:58.040Z,99180.59
2022-09-15T01:09:11.838Z,99196.22
2022-09-15T01:12:14.931Z,99194.09
2022-09-15T01:15:19.644Z,99188.47
2022-09-15T01:18:54.480Z,99185.41
2022-09-15T01:22:15.329Z,99186.50
2022-09-15T01:25:37.139Z,99187.03
2022-09-15T01:28:49.003Z,99176.19
2022-09-15T01:32:13.598Z,99188.25
2022-09-15T01:35:33.656Z,99197.28
2022-09-15T01:38:44.397Z,99197.06
2022-09-15T01:41:49.065Z,99201.00
2022-09-15T01:44:58.896Z,99206.47
2022-09-15T01:48:05.664Z,99200.13
2022-09-15T01:51:09.883Z,99201.72
2022-09-15T01:54:14.988Z,99186.66
2022-09-15T01:57:22.273Z,99188.72
2022-09-15T02:00:24.951Z,99194.69
2022-09-15T02:03:55.684Z,99191.22
2022-09-15T02:07:17.252Z,99196.66
2022-09-15T02:10:29.509Z,99213.34
2022-09-15T02:13:58.322Z,99211.78
2022-09-15T02:17:03.159Z,99198.84
2022-09-15T02:20:15.792Z,99200.25
2022-09-15T02:23:27.351Z,99187.31
2022-09-15T02:26:33.729Z,99192.75
2022-09-15T02:29:39.013Z,99198.66
2022-09-15T02:32:49.608Z,99195.19
2022-09-15T02:35:53.434Z,99180.94
2022-09-15T02:39:09.061Z,99178.31
2022-09-15T02:42:12.068Z,99192.63
2022-09-15T02:45:14.782Z,99182.94
2022-09-15T02:48:17.827Z,99187.59
2022-09-15T02:51:20.453Z,99184.13
2022-09-15T02:54:23.570Z,99176.94
2022-09-15T02:57:27.115Z,99180.88
2022-09-15T03:00:31.400Z,99169.69
2022-09-15T03:03:35.036Z,99183.75
2022-09-15T03:06:38.018Z,99173.34
2022-09-15T03:09:40.821Z,99156.78
2022-09-15T03:12:52.680Z,99167.50
2022-09-15T03:15:55.286Z,99169.94
2022-09-15T03:18:59.820Z,99157.88
2022-09-15T03:22:02.409Z,99173.59
2022-09-15T03:25:06.793Z,99173.44
2022-09-15T03:28:09.394Z,99172.09
2022-09-15T03:31:14.852Z,99173.91
2022-09-15T03:34:17.627Z,99168.63
2022-09-15T03:37:20.590Z,99171.09
2022-09-15T03:40:23.277Z,99176.59
2022-09-15T03:43:29.806Z,99166.59
2022-09-15T03:46:32.334Z,99178.50
2022-09-15T03:49:35.313Z,99177.59
2022-09-15T03:52:37.930Z,99190.63
2022-09-15T03:55:40.986Z,99189.03
2022-09-15T03:58:43.869Z,99196.88
2022-09-15T04:01:51.058Z,99189.03
2022-09-15T04:04:54.080Z,99182.41
2022-09-15T04:07:56.635Z,99176.63
2022-09-15T04:11:00.571Z,99189.88
2022-09-15T04:14:03.678Z,99191.78
2022-09-15T04:17:06.760Z,99193.87
2022-09-15T04:20:10.069Z,99195.91
2022-09-15T04:23:13.041Z,99202.19
2022-09-15T04:26:27.687Z,99199.50
2022-09-15T04:29:30.572Z,99194.59
2022-09-15T04:32:33.297Z,99195.06
2022-09-15T04:35:36.167Z,99209.06
2022-09-15T04:38:39.291Z,99201.75
2022-09-15T04:41:42.409Z,99226.13
2022-09-15T04:44:44.943Z,99218.75
2022-09-15T04:47:48.724Z,99216.50
2022-09-15T04:50:51.890Z,99207.69
2022-09-15T04:53:55.767Z,99198.00
2022-09-15T04:56:58.407Z,99204.44
2022-09-15T05:00:04.053Z,99203.28
2022-09-15T05:03:06.700Z,99202.94
2022-09-15T05:06:12.330Z,99209.06
2022-09-15T05:09:15.221Z,99201.53
2022-09-15T05:12:18.112Z,99201.84
2022-09-15T05:15:20.897Z,99219.06
2022-09-15T05:18:23.913Z,99225.44
2022-09-15T05:21:27.579Z,99232.75
2022-09-15T05:24:30.578Z,99232.53
2022-09-15T05:27:34.054Z,99238.03
2022-09-15T05:30:44.118Z,99242.28
2022-09-15T05:33:48.766Z,99249.00
2022-09-15T05:36:51.626Z,99250.12
2022-09-15T05:39:54.395Z,99258.22
2022-09-15T05:42:57.954Z,99260.97
2022-09-15T05:46:00.887Z,99254.06
2022-09-15T05:49:03.862Z,99260.22
2022-09-15T05:52:06.479Z,99256.94
2022-09-15T05:55:10.290Z,99240.72
2022-09-15T05:58:13.391Z,99230.78
2022-09-15T06:01:17.787Z,99242.34
2022-09-15T06:04:20.733Z,99252.22
2022-09-15T06:07:23.326Z,99254.28
2022-09-15T06:10:26.293Z,99260.53
2022-09-15T06:13:28.967Z,99257.47
2022-09-15T06:16:34.688Z,99252.84
2022-09-15T06:19:37.546Z,99263.00
2022-09-15T06:22:40.917Z,99266.75
2022-09-15T06:25:43.549Z,99266.91
2022-09-15T06:28:57.952Z,99272.53
2022-09-15T06:32:03.022Z,99283.34
2022-09-15T06:35:07.267Z,99286.53
2022-09-15T06:38:09.876Z,99299.44
2022-09-15T06:41:15.001Z,99297.22
2022-09-15T06:44:18.716Z,99306.25
2022-09-15T06:47:21.617Z,99318.41
2022-09-15T06:50:24.474Z,99324.44
2022-09-15T06:53:32.218Z,99322.13
2022-09-15T06:56:38.106Z,99313.09
2022-09-15T06:59:41.584Z,99313.44
2022-09-15T07:02:44.366Z,99323.00
2022-09-15T07:05:47.649Z,99314.72
2022-09-15T07:08:51.014Z,99329.03
2022-09-15T07:11:54.677Z,99347.53
2022-09-15T07:14:58.219Z,99346.31
2022-09-15T07:18:01.317Z,99343.31
2022-09-15T07:21:08.113Z,99335.94
2022-09-15T07:24:11.315Z,99339.72
2022-09-15T07:27:14.396Z,99325.91
2022-09-15T07:30:17.533Z,99343.63
2022-09-15T07:33:20.069Z,99349.09
2022-09-15T07:36:23.173Z,99346.41
2022-09-15T07:39:26.091Z,99358.34
2022-09-15T07:42:32.184Z,99362.00
2022-09-15T07:45:38.701Z,99340.50
2022-09-15T07:48:45.242Z,99336.91
2022-09-15T07:51:49.336Z,99354.34
2022-09-15T07:54:52.405Z,99334.09
2022-09-15T07:58:02.095Z,99323.06
2022-09-15T08:01:07.985Z,99323.59
2022-09-15T08:04:11.082Z,99347.63
2022-09-15T08:07:13.894Z,99335.19
2022-09-15T08:10:17.956Z,99334.34
2022-09-15T08:13:20.944Z,99332.00
2022-09-15T08:16:24.938Z,99336.81
2022-09-15T08:19:28.988Z,99326.59
2022-09-15T08:22:31.967Z,99321.09
2022-09-15T08:25:34.861Z,99331.37
2022-09-15T08:28:38.464Z,99319.50
2022-09-15T08:31:41.808Z,99322.00
2022-09-15T08:34:44.902Z,99315.75
2022-09-15T08:37:47.712Z,99313.44
2022-09-15T08:40:56.582Z,99313.19
2022-09-15T08:44:24.055Z,99305.31
2022-09-15T08:47:36.369Z,99304.16
2022-09-15T08:50:44.648Z,99306.22
2022-09-15T08:53:54.918Z,99286.72
2022-09-15T08:56:58.742Z,99281.84
2022-09-15T09:00:02.099Z,99280.25
2022-09-15T09:03:40.245Z,99267.38
2022-09-15T09:06:52.494Z,99256.81
2022-09-15T09:10:10.155Z,99250.56
2022-09-15T09:13:35.698Z,99246.59
2022-09-15T09:17:16.581Z,99245.38
2022-09-15T09:20:37.860Z,99236.81
2022-09-15T09:24:06.908Z,99237.16
2022-09-15T09:27:20.974Z,99221.25
2022-09-15T09:30:25.697Z,99230.13
2022-09-15T09:33:38.628Z,99230.31
2022-09-15T09:36:42.886Z,99234.88
2022-09-15T09:39:48.411Z,99226.78
2022-09-15T09:42:51.224Z,99216.53
2022-09-15T09:45:55.654Z,99219.16
2022-09-15T09:49:13.564Z,99219.12
2022-09-15T09:52:36.294Z,99199.38
2022-09-15T09:55:41.463Z,99193.94
2022-09-15T09:58:45.473Z,99187.25
2022-09-15T10:02:06.134Z,99184.41
2022-09-15T10:05:09.069Z,99159.81
2022-09-15T10:08:20.468Z,99146.84
2022-09-15T10:11:44.130Z,99127.47
2022-09-15T10:14:52.644Z,99134.25
2022-09-15T10:17:58.522Z,99128.38
2022-09-15T10:21:10.022Z,99125.97
2022-09-15T10:24:27.946Z,99129.91
2022-09-15T10:27:34.646Z,99137.59
2022-09-15T10:30:38.283Z,99138.16
2022-09-15T10:33:45.034Z,99132.84
2022-09-15T10:36:47.980Z,99138.19
2022-09-15T10:39:55.710Z,99141.19
2022-09-15T10:43:24.812Z,99140.47
2022-09-15T10:46:46.353Z,99135.28
2022-09-15T10:50:00.933Z,99138.09
2022-09-15T10:53:29.762Z,99134.09
2022-09-15T10:56:43.792Z,99163.22
2022-09-15T11:00:07.183Z,99158.59
2022-09-15T11:03:19.339Z,99166.91
2022-09-15T11:06:26.544Z,99169.13
2022-09-15T11:09:55.997Z,99167.56
2022-09-15T11:13:12.789Z,99169.59
2022-09-15T11:16:34.249Z,99163.47
2022-09-15T11:20:05.676Z,99171.94
2022-09-15T11:23:11.792Z,99157.09
2022-09-15T11:26:29.154Z,99155.06
2022-09-15T11:29:51.706Z,99141.53
2022-09-15T11:33:26.076Z,99135.62
2022-09-15T11:36:45.043Z,99139.34
2022-09-15T11:40:10.874Z,99131.22
2022-09-15T11:43:24.625Z,99133.25
2022-09-15T11:46:47.336Z,99115.75
2022-09-15T11:50:03.493Z,99111.84
2022-09-15T11:53:26.259Z,99111.84
2022-09-15T11:56:47.652Z,99115.38
2022-09-15T12:00:03.103Z,99124.09
2022-09-15T12:03:27.622Z,99131.75
2022-09-15T12:06:36.243Z,99122.63
2022-09-15T12:09:38.998Z,99122.28
2022-09-15T12:12:44.676Z,99112.34
2022-09-15T12:15:49.287Z,99116.00
2022-09-15T12:18:55.864Z,99111.78
2022-09-15T12:22:25.942Z,99083.34
2022-09-15T12:26:02.219Z,99088.34
2022-09-15T12:29:27.526Z,99076.88
2022-09-15T12:32:35.299Z,99081.28
2022-09-15T12:35:38.416Z,99084.72
2022-09-15T12:38:48.408Z,99115.44
2022-09-15T12:41:54.631Z,99117.06
2022-09-15T12:45:03.411Z,99121.09
2022-09-15T12:48:14.027Z,99110.53
2022-09-15T12:51:26.682Z,99106.41
2022-09-15T12:54:33.264Z,99091.59
2022-09-15T12:57:38.158Z,99093.53
2022-09-15T13:01:00.679Z,99103.66
2022-09-15T13:04:07.486Z,99103.41
2022-09-15T13:07:35.250Z,99080.06
2022-09-15T13:10:42.568Z,99089.59
2022-09-15T13:13:54.698Z,99102.75
2022-09-15T13:17:06.795Z,99126.50
2022-09-15T13:20:18.190Z,99134.13
2022-09-15T13:23:25.335Z,99140.41
2022-09-15T13:26:32.177Z,99137.00
2022-09-15T13:29:48.522Z,99142.72
2022-09-15T13:33:09.833Z,99149.94
2022-09-15T13:36:15.873Z,99157.75
2022-09-15T13:40:01.736Z,99157.50
2022-09-15T13:43:45.969Z,99163.28
2022-09-15T13:46:54.808Z,99167.63
2022-09-15T13:50:13.336Z,99155.53
2022-09-15T13:53:16.276Z,99142.84
2022-09-15T13:56:24.691Z,99123.03
2022-09-15T13:59:33.189Z,99115.31
2022-09-15T14:02:36.238Z,99121.16
2022-09-15T14:05:40.165Z,99133.97
2022-09-15T14:08:46.216Z,99149.88
2022-09-15T14:11:53.036Z,99145.50
2022-09-15T14:14:58.825Z,99147.53
2022-09-15T14:18:03.594Z,99151.28
2022-09-15T14:21:19.448Z,99165.16
2022-09-15T14:24:32.305Z,99174.31
2022-09-15T14:27:52.267Z,99173.53
2022-09-15T14:31:00.196Z,99173.19
2022-09-15T14:34:07.748Z,99135.59
2022-09-15T14:37:30.116Z,99112.25
2022-09-15T14:40:46.292Z,99101.19
2022-09-15T14:43:54.170Z,99104.22
2022-09-15T14:47:01.909Z,99088.28
2022-09-15T14:50:29.095Z,99082.66
2022-09-15T14:53:47.254Z,99080.94
2022-09-15T14:57:04.082Z,99094.22
2022-09-15T15:00:19.322Z,99100.50
2022-09-15T15:03:46.399Z,99109.50
2022-09-15T15:07:17.848Z,99100.06
2022-09-15T15:10:35.644Z,99101.91
2022-09-15T15:13:48.360Z,99102.84
2022-09-15T15:16:59.756Z,99121.38
2022-09-15T15:20:11.355Z,99126.53
2022-09-15T15:23:29.279Z,99109.66
2022-09-15T15:26:43.803Z,99115.78
2022-09-15T15:29:54.326Z,99097.84
2022-09-15T15:33:04.092Z,99096.69
2022-09-15T15:36:17.498Z,99099.38
2022-09-15T15:39:29.200Z,99087.56
2022-09-15T15:42:36.632Z,99096.94
2022-09-15T15:45:53.685Z,99111.63
2022-09-15T15:49:04.159Z,99123.53
2022-09-15T15:52:14.112Z,99114.94
2022-09-15T15:55:33.183Z,99119.69
2022-09-15T15:58:41.559Z,99118.41
2022-09-15T16:01:57.331Z,99114.94
2022-09-15T16:05:05.374Z,99100.56
2022-09-15T16:08:32.710Z,99097.59
2022-09-15T16:11:45.356Z,99094.50
2022-09-15T16:14:55.501Z,99096.44
2022-09-15T16:18:05.745Z,99085.25
2022-09-15T16:21:41.069Z,99081.91
2022-09-15T16:24:51.517Z,99063.75
2022-09-15T16:28:00.455Z,99080.34
2022-09-15T16:31:08.702Z,99083.91
2022-09-15T16:34:17.832Z,99097.38
2022-09-15T16:37:24.654Z,99096.28
2022-09-15T16:40:29.297Z,99098.12
2022-09-15T16:43:36.423Z,99102.97
2022-09-15T16:46:44.349Z,99102.56
2022-09-15T16:49:52.550Z,99119.66
2022-09-15T16:53:02.144Z,99110.59
2022-09-15T16:56:14.810Z,99107.88
2022-09-15T16:59:21.689Z,99112.06
2022-09-15T17:02:28.678Z,99123.44
2022-09-15T17:05:48.693Z,99104.78
2022-09-15T17:08:55.225Z,99108.09
2022-09-15T17:12:02.292Z,99105.50
2022-09-15T17:15:39.063Z,99112.09
2022-09-15T17:18:47.347Z,99115.03
2022-09-15T17:21:56.052Z,99111.78
2022-09-15T17:25:04.103Z,99117.94
2022-09-15T17:28:10.995Z,99113.88
2022-09-15T17:31:17.150Z,99121.28
2022-09-15T17:34:24.219Z,99115.84
2022-09-15T17:37:27.761Z,99114.88
2022-09-15T17:40:34.192Z,99113.50
2022-09-15T17:43:38.772Z,99113.91
2022-09-15T17:46:41.946Z,99106.06
2022-09-15T17:49:48.930Z,99093.25
2022-09-15T17:52:52.072Z,99097.03
2022-09-15T17:55:59.818Z,99095.13
2022-09-15T17:59:05.938Z,99096.16
2022-09-15T18:02:23.155Z,99097.72
2022-09-15T18:05:34.510Z,99094.44
2022-09-15T18:08:44.558Z,99102.78
2022-09-15T18:15:06.832Z,99116.94
2022-09-15T18:18:20.987Z,99123.72
2022-09-15T18:21:34.235Z,99123.44
2022-09-15T18:24:40.909Z,99119.63
2022-09-15T18:27:51.261Z,99124.37
2022-09-15T18:30:54.634Z,99116.03
2022-09-15T18:33:58.213Z,99123.50
2022-09-15T18:37:02.684Z,99114.72
2022-09-15T18:40:12.307Z,99117.06
2022-09-15T18:43:21.330Z,99124.47
2022-09-15T18:46:29.394Z,99135.81
2022-09-15T18:49:39.458Z,99133.66
2022-09-15T18:52:50.439Z,99135.22
2022-09-15T18:55:58.498Z,99133.06
2022-09-15T18:59:08.328Z,99152.47
2022-09-15T19:02:20.026Z,99149.09
2022-09-15T19:05:29.046Z,99154.94
2022-09-15T19:08:39.921Z,99160.91
2022-09-15T19:11:46.149Z,99170.56
2022-09-15T19:14:53.801Z,99160.75
2022-09-15T19:17:59.653Z,99176.91
2022-09-15T19:21:12.611Z,99208.94
2022-09-15T19:24:19.494Z,99215.44
2022-09-15T19:27:27.000Z,99210.81
2022-09-15T19:30:35.429Z,99205.28
2022-09-15T19:33:40.511Z,99205.72
2022-09-15T19:36:47.242Z,99203.88
2022-09-15T19:39:52.232Z,99212.47
2022-09-15T19:42:57.694Z,99215.56
2022-09-15T19:46:03.582Z,99217.13
2022-09-15T19:49:13.020Z,99222.44
2022-09-15T19:52:19.211Z,99228.25
2022-09-15T19:55:23.314Z,99230.41
2022-09-15T19:58:30.274Z,99226.66
2022-09-15T20:01:34.843Z,99227.03
2022-09-15T20:08:05.760Z,99216.22
2022-09-15T20:11:12.899Z,99235.91
2022-09-15T20:14:16.562Z,99236.09
2022-09-15T20:17:21.164Z,99235.47
2022-09-15T20:20:28.247Z,99236.00
2022-09-15T20:23:36.839Z,99240.03
2022-09-15T20:26:45.952Z,99228.72
2022-09-15T20:29:56.131Z,99231.31
2022-09-15T20:33:01.991Z,99226.94
2022-09-15T20:36:21.008Z,99236.16
2022-09-15T20:39:28.237Z,99237.38
2022-09-15T20:42:37.563Z,99242.53
2022-09-15T20:45:44.813Z,99244.53
2022-09-15T20:48:58.263Z,99231.41
2022-09-15T20:52:05.560Z,99247.59
2022-09-15T20:55:18.228Z,99258.59
2022-09-15T20:58:25.258Z,99258.00
2022-09-15T21:01:39.311Z,99261.47
2022-09-15T21:04:54.113Z,99266.41
2022-09-15T21:08:09.872Z,99266.97
2022-09-15T21:11:26.542Z,99266.97
2022-09-15T21:14:41.563Z,99268.84
2022-09-15T21:17:51.380Z,99276.53
2022-09-15T21:21:14.101Z,99280.53
2022-09-15T21:24:26.994Z,99280.22
2022-09-15T21:27:41.067Z,99283.72
2022-09-15T21:30:53.063Z,99288.19
2022-09-15T21:34:05.576Z,99288.31
2022-09-15T21:37:17.704Z,99290.19
2022-09-15T21:40:28.330Z,99295.00
2022-09-15T21:43:42.105Z,99297.97
2022-09-15T21:46:57.131Z,99285.37
2022-09-15T21:50:09.827Z,99296.62
2022-09-15T21:53:22.349Z,99297.81
2022-09-15T21:56:33.842Z,99304.22
2022-09-15T21:59:43.984Z,99320.09
2022-09-15T22:02:58.549Z,99327.19
2022-09-15T22:06:12.932Z,99331.53
2022-09-15T22:09:26.569Z,99341.75
2022-09-15T22:12:38.752Z,99347.94
2022-09-15T22:15:48.865Z,99357.91
2022-09-15T22:18:59.852Z,99378.03
2022-09-15T22:22:12.495Z,99386.63
2022-09-15T22:25:23.474Z,99393.63
2022-09-15T22:28:36.431Z,99403.44
2022-09-15T22:31:50.744Z,99412.56
2022-09-15T22:35:00.629Z,99401.50
2022-09-15T22:38:10.335Z,99408.69
2022-09-15T22:41:23.235Z,99411.84
2022-09-15T22:44:35.091Z,99416.25
2022-09-15T22:47:44.459Z,99413.78
2022-09-15T22:50:54.220Z,99427.09
2022-09-15T22:54:06.975Z,99443.41
2022-09-15T22:57:19.414Z,99448.47
2022-09-15T23:00:27.850Z,99463.19
2022-09-15T23:03:40.021Z,99466.44
2022-09-15T23:06:51.823Z,99467.06
2022-09-15T23:10:06.768Z,99464.94
2022-09-15T23:13:19.354Z,99467.75
2022-09-15T23:16:36.545Z,99451.63
2022-09-15T23:19:46.783Z,99448.12
2022-09-15T23:22:59.597Z,99448.66
2022-09-15T23:26:13.585Z,99462.47
2022-09-15T23:29:27.532Z,99458.28
2022-09-15T23:32:40.702Z,99447.28
2022-09-15T23:35:53.986Z,99450.41
2022-09-15T23:39:05.437Z,99460.22
2022-09-15T23:42:20.201Z,99464.69
2022-09-15T23:45:27.972Z,99478.56
2022-09-15T23:48:36.658Z,99483.81
2022-09-15T23:51:48.735Z,99482.53
2022-09-15T23:55:05.234Z,99503.63
2022-09-15T23:58:17.629Z,99499.28
